LEGE Airport Information

Runway Information
Runway 02 Length 7874 ft width 148 ft
Elevation 403 ft Threshold 0 ft Heading 16
Runway 20 Length 7874 ft Width 148 ft
Elevation 468 ft Threshold 0 ft Heading 196
Airport Frequencies
Type APP Name APP Frequency 120.9 MHZ
Type GND Name GND Frequency 121.7 MHZ
Type TWR Name TWR Frequency 118.5 MHZ
Airport Navaids
Type VOR-DME Name Gerona Frequency 114100 KHZ
Type NDB Name Gerona Frequency 412 KHZ
Airport Weather Information & NOTAM
ADDS - METARS form results

(1714 UTC 04 December 2021)
Data provider http://aviationweather.gov/metar/data/
 
METAR text: LEGE 041700Z 00000KT CAVOK 12/05 Q1012
Conditions at: LEGE (GERONA/COSTA BRA, ES) observed 1700 UTC 04 December 2021
Temperature: 12.0°C (54°F)
Dewpoint: 5.0°C (41°F) [RH = 62%]
Pressure (altimeter): 29.88 inches Hg (1012.0 mb)
Winds: calm
Visibility: 6 or more miles (10+ km)
Ceiling: ceiling and visibility are OK
Clouds: unknown
Weather: no significant weather observed at this time

METAR text: LEGE 041630Z 34002KT CAVOK 12/06 Q1011
Conditions at: LEGE (GERONA/COSTA BRA, ES) observed 1630 UTC 04 December 2021
Temperature: 12.0°C (54°F)
Dewpoint: 6.0°C (43°F) [RH = 67%]
Pressure (altimeter): 29.85 inches Hg (1011.0 mb)
Winds: from the NNW (340 degrees) at 2 MPH (2 knots; 1.0 m/s)
Visibility: 6 or more miles (10+ km)
Ceiling: ceiling and visibility are OK
Clouds: unknown
Weather: no significant weather observed at this time

Forecast for: AMD
Text: TAF AMD LEGE 041407Z 0414/0512 30008KT 9999 FEW025 TX17/0512Z TN01/0506Z
Forecast period: 1400 UTC 04 December 2021 to 1200 UTC 05 December 2021
Forecast type: FROM: standard forecast or significant change
Winds: from the WNW (300 degrees) at 9 MPH (8 knots; 4.1 m/s)
Visibility: 6 or more miles (10+ km)
Ceiling: at least 12,000 feet AGL
Clouds: few clouds at 2500 feet AGL
Weather: no significant weather forecast for this period
Text: TEMPO 0414/0416 27017G27KT
Forecast period: 1400 to 1600 UTC 04 December 2021
Forecast type: TEMPORARY: The following changes expected for less than half the time period
Winds: from the W (270 degrees) at 20 MPH (17 knots; 8.7 m/s)
gusting to 31 MPH (27 knots; 13.9 m/s)
Visibility: missing
Ceiling: unknown
Clouds: missing
Weather: no significant weather forecast for this period